sensor_id;sensor_type;location;lat;lon;timestamp;P1;durP1;ratioP1;P2;durP2;ratioP2
679;SDS011;322;48.846;9.230;2022-09-16T00:00:17;17.50;;;8.13;;
679;SDS011;322;48.846;9.230;2022-09-16T00:02:44;7.40;;;6.60;;
679;SDS011;322;48.846;9.230;2022-09-16T00:05:11;8.30;;;5.90;;
679;SDS011;322;48.846;9.230;2022-09-16T00:07:37;6.80;;;6.07;;
679;SDS011;322;48.846;9.230;2022-09-16T00:10:05;7.47;;;6.77;;
679;SDS011;322;48.846;9.230;2022-09-16T00:12:32;7.50;;;6.30;;
679;SDS011;322;48.846;9.230;2022-09-16T00:14:59;6.70;;;6.10;;
679;SDS011;322;48.846;9.230;2022-09-16T00:17:27;7.97;;;7.17;;
679;SDS011;322;48.846;9.230;2022-09-16T00:19:55;7.30;;;5.70;;
679;SDS011;322;48.846;9.230;2022-09-16T00:22:21;8.53;;;7.00;;
679;SDS011;322;48.846;9.230;2022-09-16T00:24:49;6.77;;;6.17;;
679;SDS011;322;48.846;9.230;2022-09-16T00:27:15;11.43;;;7.33;;
679;SDS011;322;48.846;9.230;2022-09-16T00:29:42;9.03;;;6.70;;
679;SDS011;322;48.846;9.230;2022-09-16T00:32:09;7.10;;;6.20;;
679;SDS011;322;48.846;9.230;2022-09-16T00:34:37;7.00;;;6.30;;
679;SDS011;322;48.846;9.230;2022-09-16T00:37:04;8.80;;;6.57;;
679;SDS011;322;48.846;9.230;2022-09-16T00:39:32;9.37;;;6.47;;
679;SDS011;322;48.846;9.230;2022-09-16T00:41:59;8.40;;;7.13;;
679;SDS011;322;48.846;9.230;2022-09-16T00:47:25;7.30;;;6.60;;
679;SDS011;322;48.846;9.230;2022-09-16T00:49:58;7.70;;;6.90;;
679;SDS011;322;48.846;9.230;2022-09-16T00:52:30;7.07;;;6.37;;
679;SDS011;322;48.846;9.230;2022-09-16T00:54:57;7.63;;;6.47;;
679;SDS011;322;48.846;9.230;2022-09-16T00:57:28;6.53;;;5.90;;
679;SDS011;322;48.846;9.230;2022-09-16T00:59:55;7.50;;;6.40;;
679;SDS011;322;48.846;9.230;2022-09-16T01:02:23;8.53;;;7.23;;
679;SDS011;322;48.846;9.230;2022-09-16T01:04:51;7.30;;;6.60;;
679;SDS011;322;48.846;9.230;2022-09-16T01:07:25;7.07;;;6.47;;
679;SDS011;322;48.846;9.230;2022-09-16T01:09:55;7.37;;;6.60;;
679;SDS011;322;48.846;9.230;2022-09-16T01:12:22;8.90;;;6.40;;
679;SDS011;322;48.846;9.230;2022-09-16T01:14:49;9.40;;;6.53;;
679;SDS011;322;48.846;9.230;2022-09-16T01:17:20;7.23;;;6.53;;
679;SDS011;322;48.846;9.230;2022-09-16T01:23:05;8.10;;;6.77;;
679;SDS011;322;48.846;9.230;2022-09-16T01:25:58;10.47;;;7.97;;
679;SDS011;322;48.846;9.230;2022-09-16T01:31:28;8.03;;;7.30;;
679;SDS011;322;48.846;9.230;2022-09-16T01:34:04;14.40;;;7.53;;
679;SDS011;322;48.846;9.230;2022-09-16T01:36:43;8.07;;;6.83;;
679;SDS011;322;48.846;9.230;2022-09-16T01:39:17;8.10;;;7.33;;
679;SDS011;322;48.846;9.230;2022-09-16T01:42:00;7.37;;;6.63;;
679;SDS011;322;48.846;9.230;2022-09-16T01:44:38;8.47;;;7.67;;
679;SDS011;322;48.846;9.230;2022-09-16T01:47:15;9.03;;;7.27;;
679;SDS011;322;48.846;9.230;2022-09-16T01:49:50;7.67;;;6.97;;
679;SDS011;322;48.846;9.230;2022-09-16T01:52:25;10.30;;;6.70;;
679;SDS011;322;48.846;9.230;2022-09-16T01:55:00;7.27;;;6.57;;
679;SDS011;322;48.846;9.230;2022-09-16T01:57:30;8.17;;;6.80;;
679;SDS011;322;48.846;9.230;2022-09-16T02:00:03;6.63;;;6.00;;
679;SDS011;322;48.846;9.230;2022-09-16T02:02:35;7.47;;;6.27;;
679;SDS011;322;48.846;9.230;2022-09-16T02:05:06;8.20;;;6.23;;
679;SDS011;322;48.846;9.230;2022-09-16T02:07:37;6.37;;;5.77;;
679;SDS011;322;48.846;9.230;2022-09-16T02:10:10;7.83;;;6.20;;
679;SDS011;322;48.846;9.230;2022-09-16T02:12:43;7.43;;;5.53;;
679;SDS011;322;48.846;9.230;2022-09-16T02:15:13;6.77;;;6.00;;
679;SDS011;322;48.846;9.230;2022-09-16T02:17:48;8.93;;;7.77;;
679;SDS011;322;48.846;9.230;2022-09-16T02:20:18;7.43;;;6.30;;
679;SDS011;322;48.846;9.230;2022-09-16T02:22:50;6.63;;;6.00;;
679;SDS011;322;48.846;9.230;2022-09-16T02:25:21;7.77;;;6.97;;
679;SDS011;322;48.846;9.230;2022-09-16T02:27:49;7.23;;;6.17;;
679;SDS011;322;48.846;9.230;2022-09-16T02:30:18;7.47;;;6.77;;
679;SDS011;322;48.846;9.230;2022-09-16T02:32:49;10.07;;;6.97;;
679;SDS011;322;48.846;9.230;2022-09-16T02:35:19;8.90;;;6.60;;
679;SDS011;322;48.846;9.230;2022-09-16T02:37:48;6.77;;;6.07;;
679;SDS011;322;48.846;9.230;2022-09-16T02:40:19;7.43;;;6.73;;
679;SDS011;322;48.846;9.230;2022-09-16T02:42:50;9.90;;;5.90;;
679;SDS011;322;48.846;9.230;2022-09-16T02:45:17;7.00;;;5.57;;
679;SDS011;322;48.846;9.230;2022-09-16T02:47:46;6.70;;;6.10;;
679;SDS011;322;48.846;9.230;2022-09-16T02:50:24;10.13;;;7.77;;
679;SDS011;322;48.846;9.230;2022-09-16T02:52:55;6.43;;;5.80;;
679;SDS011;322;48.846;9.230;2022-09-16T02:55:28;6.33;;;5.83;;
679;SDS011;322;48.846;9.230;2022-09-16T02:58:03;6.53;;;5.80;;
679;SDS011;322;48.846;9.230;2022-09-16T03:00:30;5.93;;;5.43;;
679;SDS011;322;48.846;9.230;2022-09-16T03:03:03;6.80;;;5.60;;
679;SDS011;322;48.846;9.230;2022-09-16T03:05:30;8.50;;;7.70;;
679;SDS011;322;48.846;9.230;2022-09-16T03:07:57;7.07;;;6.37;;
679;SDS011;322;48.846;9.230;2022-09-16T03:10:27;10.37;;;6.70;;
679;SDS011;322;48.846;9.230;2022-09-16T03:13:01;9.10;;;6.13;;
679;SDS011;322;48.846;9.230;2022-09-16T03:15:40;5.70;;;5.20;;
679;SDS011;322;48.846;9.230;2022-09-16T03:18:23;9.43;;;5.57;;
679;SDS011;322;48.846;9.230;2022-09-16T03:21:04;8.93;;;5.80;;
679;SDS011;322;48.846;9.230;2022-09-16T03:23:41;8.37;;;6.43;;
679;SDS011;322;48.846;9.230;2022-09-16T03:26:15;7.33;;;5.40;;
679;SDS011;322;48.846;9.230;2022-09-16T03:28:53;6.80;;;5.83;;
679;SDS011;322;48.846;9.230;2022-09-16T03:31:29;8.83;;;6.10;;
679;SDS011;322;48.846;9.230;2022-09-16T03:34:03;6.00;;;5.40;;
679;SDS011;322;48.846;9.230;2022-09-16T03:36:34;5.63;;;5.10;;
679;SDS011;322;48.846;9.230;2022-09-16T03:39:06;7.43;;;5.07;;
679;SDS011;322;48.846;9.230;2022-09-16T03:41:35;5.83;;;4.67;;
679;SDS011;322;48.846;9.230;2022-09-16T03:44:03;6.83;;;5.33;;
679;SDS011;322;48.846;9.230;2022-09-16T03:46:30;6.10;;;4.40;;
679;SDS011;322;48.846;9.230;2022-09-16T03:48:57;6.10;;;5.50;;
679;SDS011;322;48.846;9.230;2022-09-16T03:51:25;8.80;;;5.87;;
679;SDS011;322;48.846;9.230;2022-09-16T03:53:53;5.43;;;5.00;;
679;SDS011;322;48.846;9.230;2022-09-16T03:56:21;6.63;;;5.43;;
679;SDS011;322;48.846;9.230;2022-09-16T03:58:48;6.17;;;4.93;;
679;SDS011;322;48.846;9.230;2022-09-16T04:01:15;8.13;;;4.90;;
679;SDS011;322;48.846;9.230;2022-09-16T04:03:42;6.63;;;5.37;;
679;SDS011;322;48.846;9.230;2022-09-16T04:06:09;6.20;;;5.33;;
679;SDS011;322;48.846;9.230;2022-09-16T04:08:37;8.33;;;5.67;;
679;SDS011;322;48.846;9.230;2022-09-16T04:11:04;7.13;;;5.83;;
679;SDS011;322;48.846;9.230;2022-09-16T04:13:32;10.30;;;6.47;;
679;SDS011;322;48.846;9.230;2022-09-16T04:16:00;7.23;;;5.23;;
679;SDS011;322;48.846;9.230;2022-09-16T04:18:28;5.40;;;4.90;;
679;SDS011;322;48.846;9.230;2022-09-16T04:20:56;9.37;;;6.03;;
679;SDS011;322;48.846;9.230;2022-09-16T04:23:23;5.37;;;4.70;;
679;SDS011;322;48.846;9.230;2022-09-16T04:25:55;7.13;;;5.60;;
679;SDS011;322;48.846;9.230;2022-09-16T04:28:22;6.83;;;5.47;;
679;SDS011;322;48.846;9.230;2022-09-16T04:30:49;7.07;;;6.10;;
679;SDS011;322;48.846;9.230;2022-09-16T04:33:16;6.70;;;6.10;;
679;SDS011;322;48.846;9.230;2022-09-16T04:35:43;6.90;;;6.20;;
679;SDS011;322;48.846;9.230;2022-09-16T04:38:09;6.70;;;5.90;;
679;SDS011;322;48.846;9.230;2022-09-16T04:40:36;5.40;;;4.90;;
679;SDS011;322;48.846;9.230;2022-09-16T04:43:05;5.47;;;4.70;;
679;SDS011;322;48.846;9.230;2022-09-16T04:45:32;5.47;;;4.93;;
679;SDS011;322;48.846;9.230;2022-09-16T04:47:59;5.50;;;4.43;;
679;SDS011;322;48.846;9.230;2022-09-16T04:50:25;6.50;;;5.57;;
679;SDS011;322;48.846;9.230;2022-09-16T04:52:52;8.80;;;6.37;;
679;SDS011;322;48.846;9.230;2022-09-16T04:55:19;7.83;;;6.70;;
679;SDS011;322;48.846;9.230;2022-09-16T04:57:47;7.43;;;5.87;;
679;SDS011;322;48.846;9.230;2022-09-16T05:00:16;10.03;;;6.40;;
679;SDS011;322;48.846;9.230;2022-09-16T05:02:43;7.27;;;5.20;;
679;SDS011;322;48.846;9.230;2022-09-16T05:05:10;6.90;;;5.60;;
679;SDS011;322;48.846;9.230;2022-09-16T05:07:37;10.33;;;5.90;;
679;SDS011;322;48.846;9.230;2022-09-16T05:10:04;6.33;;;5.73;;
679;SDS011;322;48.846;9.230;2022-09-16T05:12:31;6.23;;;5.30;;
679;SDS011;322;48.846;9.230;2022-09-16T05:14:58;6.63;;;5.30;;
679;SDS011;322;48.846;9.230;2022-09-16T05:17:26;7.90;;;7.13;;
679;SDS011;322;48.846;9.230;2022-09-16T05:19:55;12.87;;;6.20;;
679;SDS011;322;48.846;9.230;2022-09-16T05:22:21;7.40;;;6.60;;
679;SDS011;322;48.846;9.230;2022-09-16T05:24:48;7.57;;;6.77;;
679;SDS011;322;48.846;9.230;2022-09-16T05:27:15;7.33;;;6.40;;
679;SDS011;322;48.846;9.230;2022-09-16T05:29:42;9.17;;;7.60;;
679;SDS011;322;48.846;9.230;2022-09-16T05:32:09;7.13;;;6.40;;
679;SDS011;322;48.846;9.230;2022-09-16T05:34:37;7.97;;;7.13;;
679;SDS011;322;48.846;9.230;2022-09-16T05:37:04;8.93;;;6.80;;
679;SDS011;322;48.846;9.230;2022-09-16T05:39:30;8.57;;;7.70;;
679;SDS011;322;48.846;9.230;2022-09-16T05:41:58;7.90;;;6.80;;
679;SDS011;322;48.846;9.230;2022-09-16T05:44:25;8.13;;;7.33;;
679;SDS011;322;48.846;9.230;2022-09-16T05:46:53;8.70;;;6.70;;
679;SDS011;322;48.846;9.230;2022-09-16T05:49:20;8.60;;;7.80;;
679;SDS011;322;48.846;9.230;2022-09-16T05:51:48;8.40;;;7.30;;
679;SDS011;322;48.846;9.230;2022-09-16T05:54:16;10.67;;;7.70;;
679;SDS011;322;48.846;9.230;2022-09-16T05:56:44;7.50;;;6.80;;
679;SDS011;322;48.846;9.230;2022-09-16T05:59:11;8.20;;;6.50;;
679;SDS011;322;48.846;9.230;2022-09-16T06:01:39;7.80;;;6.77;;
679;SDS011;322;48.846;9.230;2022-09-16T06:04:06;7.50;;;6.80;;
679;SDS011;322;48.846;9.230;2022-09-16T06:06:35;8.60;;;6.87;;
679;SDS011;322;48.846;9.230;2022-09-16T06:09:05;9.33;;;7.90;;
679;SDS011;322;48.846;9.230;2022-09-16T06:11:35;11.13;;;7.77;;
679;SDS011;322;48.846;9.230;2022-09-16T06:14:03;10.33;;;7.70;;
679;SDS011;322;48.846;9.230;2022-09-16T06:16:30;8.67;;;6.60;;
679;SDS011;322;48.846;9.230;2022-09-16T06:18:57;8.23;;;7.30;;
679;SDS011;322;48.846;9.230;2022-09-16T06:21:26;8.60;;;6.30;;
679;SDS011;322;48.846;9.230;2022-09-16T06:23:54;8.07;;;6.33;;
679;SDS011;322;48.846;9.230;2022-09-16T06:26:23;6.67;;;6.10;;
679;SDS011;322;48.846;9.230;2022-09-16T06:28:51;11.40;;;6.80;;
679;SDS011;322;48.846;9.230;2022-09-16T06:31:20;9.83;;;5.63;;
679;SDS011;322;48.846;9.230;2022-09-16T06:33:48;7.13;;;6.47;;
679;SDS011;322;48.846;9.230;2022-09-16T06:36:16;7.90;;;6.87;;
679;SDS011;322;48.846;9.230;2022-09-16T06:38:44;8.47;;;6.80;;
679;SDS011;322;48.846;9.230;2022-09-16T06:41:12;10.00;;;6.90;;
679;SDS011;322;48.846;9.230;2022-09-16T06:43:41;7.43;;;6.50;;
679;SDS011;322;48.846;9.230;2022-09-16T06:46:09;11.90;;;7.73;;
679;SDS011;322;48.846;9.230;2022-09-16T06:48:40;8.00;;;6.80;;
679;SDS011;322;48.846;9.230;2022-09-16T06:51:08;7.93;;;6.67;;
679;SDS011;322;48.846;9.230;2022-09-16T06:53:36;8.80;;;6.70;;
679;SDS011;322;48.846;9.230;2022-09-16T06:56:04;6.73;;;5.50;;
679;SDS011;322;48.846;9.230;2022-09-16T06:58:33;9.53;;;6.03;;
679;SDS011;322;48.846;9.230;2022-09-16T07:01:04;7.70;;;5.40;;
679;SDS011;322;48.846;9.230;2022-09-16T07:03:31;8.30;;;5.23;;
679;SDS011;322;48.846;9.230;2022-09-16T07:05:59;6.17;;;5.30;;
679;SDS011;322;48.846;9.230;2022-09-16T07:08:27;6.90;;;4.53;;
679;SDS011;322;48.846;9.230;2022-09-16T07:10:55;7.33;;;5.40;;
679;SDS011;322;48.846;9.230;2022-09-16T07:13:22;6.50;;;5.40;;
679;SDS011;322;48.846;9.230;2022-09-16T07:15:49;9.30;;;5.50;;
679;SDS011;322;48.846;9.230;2022-09-16T07:18:17;8.10;;;6.90;;
679;SDS011;322;48.846;9.230;2022-09-16T07:20:44;5.23;;;4.73;;
679;SDS011;322;48.846;9.230;2022-09-16T07:23:11;5.90;;;5.30;;
679;SDS011;322;48.846;9.230;2022-09-16T07:25:38;6.73;;;6.03;;
679;SDS011;322;48.846;9.230;2022-09-16T07:28:05;6.53;;;5.50;;
679;SDS011;322;48.846;9.230;2022-09-16T07:30:31;7.47;;;6.77;;
679;SDS011;322;48.846;9.230;2022-09-16T07:32:58;7.50;;;6.73;;
679;SDS011;322;48.846;9.230;2022-09-16T07:35:26;8.20;;;6.77;;
679;SDS011;322;48.846;9.230;2022-09-16T07:37:53;7.50;;;6.80;;
679;SDS011;322;48.846;9.230;2022-09-16T07:40:20;9.80;;;6.47;;
679;SDS011;322;48.846;9.230;2022-09-16T07:42:47;9.10;;;7.03;;
679;SDS011;322;48.846;9.230;2022-09-16T07:45:13;9.77;;;7.50;;
679;SDS011;322;48.846;9.230;2022-09-16T07:47:40;8.10;;;6.33;;
679;SDS011;322;48.846;9.230;2022-09-16T07:50:07;7.67;;;6.97;;
679;SDS011;322;48.846;9.230;2022-09-16T07:52:36;8.87;;;6.43;;
679;SDS011;322;48.846;9.230;2022-09-16T07:55:03;8.07;;;6.43;;
679;SDS011;322;48.846;9.230;2022-09-16T07:57:30;10.77;;;6.77;;
679;SDS011;322;48.846;9.230;2022-09-16T07:59:57;8.73;;;6.20;;
679;SDS011;322;48.846;9.230;2022-09-16T08:02:24;11.65;;;8.45;;
679;SDS011;322;48.846;9.230;2022-09-16T08:04:51;9.53;;;8.37;;
679;SDS011;322;48.846;9.230;2022-09-16T08:07:18;8.87;;;7.50;;
679;SDS011;322;48.846;9.230;2022-09-16T08:09:46;7.53;;;6.73;;
679;SDS011;322;48.846;9.230;2022-09-16T08:12:13;7.63;;;6.93;;
679;SDS011;322;48.846;9.230;2022-09-16T08:14:40;9.17;;;7.17;;
679;SDS011;322;48.846;9.230;2022-09-16T08:17:06;8.83;;;6.50;;
679;SDS011;322;48.846;9.230;2022-09-16T08:19:33;9.43;;;6.50;;
679;SDS011;322;48.846;9.230;2022-09-16T08:22:02;7.30;;;6.60;;
679;SDS011;322;48.846;9.230;2022-09-16T08:24:29;6.13;;;5.53;;
679;SDS011;322;48.846;9.230;2022-09-16T08:26:57;6.87;;;6.17;;
679;SDS011;322;48.846;9.230;2022-09-16T08:29:24;7.27;;;5.90;;
679;SDS011;322;48.846;9.230;2022-09-16T08:31:51;9.00;;;6.13;;
679;SDS011;322;48.846;9.230;2022-09-16T08:34:18;10.17;;;7.10;;
679;SDS011;322;48.846;9.230;2022-09-16T08:36:44;8.23;;;6.97;;
679;SDS011;322;48.846;9.230;2022-09-16T08:39:11;9.30;;;7.90;;
679;SDS011;322;48.846;9.230;2022-09-16T08:44:52;9.27;;;7.33;;
679;SDS011;322;48.846;9.230;2022-09-16T08:47:27;9.57;;;7.50;;
679;SDS011;322;48.846;9.230;2022-09-16T08:50:09;11.07;;;7.60;;
679;SDS011;322;48.846;9.230;2022-09-16T08:52:40;7.07;;;6.37;;
679;SDS011;322;48.846;9.230;2022-09-16T08:55:10;8.30;;;7.50;;
679;SDS011;322;48.846;9.230;2022-09-16T08:57:42;7.50;;;6.80;;
679;SDS011;322;48.846;9.230;2022-09-16T09:00:17;12.93;;;6.80;;
679;SDS011;322;48.846;9.230;2022-09-16T09:02:45;7.33;;;6.40;;
679;SDS011;322;48.846;9.230;2022-09-16T09:05:18;9.37;;;6.67;;
679;SDS011;322;48.846;9.230;2022-09-16T09:08:00;8.40;;;6.40;;
679;SDS011;322;48.846;9.230;2022-09-16T09:10:39;9.30;;;6.33;;
679;SDS011;322;48.846;9.230;2022-09-16T09:13:15;7.93;;;7.13;;
679;SDS011;322;48.846;9.230;2022-09-16T09:15:55;7.60;;;6.70;;
679;SDS011;322;48.846;9.230;2022-09-16T09:18:39;7.60;;;6.73;;
679;SDS011;322;48.846;9.230;2022-09-16T09:21:15;11.03;;;7.17;;
679;SDS011;322;48.846;9.230;2022-09-16T09:23:53;24.33;;;7.33;;
679;SDS011;322;48.846;9.230;2022-09-16T09:26:34;8.33;;;7.40;;
679;SDS011;322;48.846;9.230;2022-09-16T09:29:13;10.07;;;6.63;;
679;SDS011;322;48.846;9.230;2022-09-16T09:31:58;7.13;;;6.40;;
679;SDS011;322;48.846;9.230;2022-09-16T09:34:36;8.00;;;5.60;;
679;SDS011;322;48.846;9.230;2022-09-16T09:37:20;6.40;;;5.80;;
679;SDS011;322;48.846;9.230;2022-09-16T09:40:02;6.47;;;5.90;;
679;SDS011;322;48.846;9.230;2022-09-16T09:42:37;7.17;;;5.73;;
679;SDS011;322;48.846;9.230;2022-09-16T09:45:13;9.67;;;6.20;;
679;SDS011;322;48.846;9.230;2022-09-16T09:47:45;8.43;;;5.67;;
679;SDS011;322;48.846;9.230;2022-09-16T09:50:16;6.30;;;5.70;;
679;SDS011;322;48.846;9.230;2022-09-16T09:52:49;6.03;;;5.53;;
679;SDS011;322;48.846;9.230;2022-09-16T09:55:20;5.63;;;5.10;;
679;SDS011;322;48.846;9.230;2022-09-16T09:58:08;7.20;;;4.77;;
679;SDS011;322;48.846;9.230;2022-09-16T10:00:50;5.73;;;5.00;;
679;SDS011;322;48.846;9.230;2022-09-16T10:03:20;6.23;;;5.60;;
679;SDS011;322;48.846;9.230;2022-09-16T10:05:47;6.17;;;5.00;;
679;SDS011;322;48.846;9.230;2022-09-16T10:08:16;6.23;;;5.43;;
679;SDS011;322;48.846;9.230;2022-09-16T10:10:49;7.40;;;6.30;;
679;SDS011;322;48.846;9.230;2022-09-16T10:13:18;9.47;;;6.27;;
679;SDS011;322;48.846;9.230;2022-09-16T10:15:46;6.17;;;5.60;;
679;SDS011;322;48.846;9.230;2022-09-16T10:18:20;8.60;;;5.67;;
679;SDS011;322;48.846;9.230;2022-09-16T10:20:55;7.90;;;6.40;;
679;SDS011;322;48.846;9.230;2022-09-16T10:23:25;6.70;;;5.43;;
679;SDS011;322;48.846;9.230;2022-09-16T10:26:02;7.77;;;5.63;;
679;SDS011;322;48.846;9.230;2022-09-16T10:28:51;6.30;;;5.70;;
679;SDS011;322;48.846;9.230;2022-09-16T10:31:23;6.77;;;5.57;;
679;SDS011;322;48.846;9.230;2022-09-16T10:33:53;6.00;;;5.50;;
679;SDS011;322;48.846;9.230;2022-09-16T10:36:21;4.80;;;4.40;;
679;SDS011;322;48.846;9.230;2022-09-16T10:38:51;6.03;;;5.43;;
679;SDS011;322;48.846;9.230;2022-09-16T10:41:23;4.70;;;4.30;;
679;SDS011;322;48.846;9.230;2022-09-16T10:43:52;7.57;;;4.63;;
679;SDS011;322;48.846;9.230;2022-09-16T10:46:21;6.77;;;4.13;;
679;SDS011;322;48.846;9.230;2022-09-16T10:48:48;6.30;;;4.40;;
679;SDS011;322;48.846;9.230;2022-09-16T10:51:23;5.07;;;4.60;;
679;SDS011;322;48.846;9.230;2022-09-16T10:53:52;5.50;;;4.43;;
679;SDS011;322;48.846;9.230;2022-09-16T10:56:20;6.43;;;4.70;;
679;SDS011;322;48.846;9.230;2022-09-16T10:58:48;5.03;;;4.53;;
679;SDS011;322;48.846;9.230;2022-09-16T11:01:20;4.10;;;3.70;;
679;SDS011;322;48.846;9.230;2022-09-16T11:07:06;5.30;;;4.43;;
679;SDS011;322;48.846;9.230;2022-09-16T11:09:41;5.43;;;3.77;;
679;SDS011;322;48.846;9.230;2022-09-16T11:15:09;5.97;;;4.57;;
679;SDS011;322;48.846;9.230;2022-09-16T11:17:45;4.50;;;4.10;;
679;SDS011;322;48.846;9.230;2022-09-16T11:20:28;7.37;;;4.23;;
679;SDS011;322;48.846;9.230;2022-09-16T11:23:05;6.70;;;4.63;;
679;SDS011;322;48.846;9.230;2022-09-16T11:25:42;5.73;;;4.70;;
679;SDS011;322;48.846;9.230;2022-09-16T11:28:21;4.63;;;4.20;;
679;SDS011;322;48.846;9.230;2022-09-16T11:31:05;4.53;;;3.80;;
679;SDS011;322;48.846;9.230;2022-09-16T11:33:39;5.47;;;4.57;;
679;SDS011;322;48.846;9.230;2022-09-16T11:39:08;5.03;;;4.37;;
679;SDS011;322;48.846;9.230;2022-09-16T11:41:46;7.20;;;3.67;;
679;SDS011;322;48.846;9.230;2022-09-16T11:44:26;10.17;;;4.43;;
679;SDS011;322;48.846;9.230;2022-09-16T11:47:13;6.47;;;4.00;;
679;SDS011;322;48.846;9.230;2022-09-16T11:50:06;4.97;;;4.47;;
679;SDS011;322;48.846;9.230;2022-09-16T11:52:49;6.03;;;3.90;;
679;SDS011;322;48.846;9.230;2022-09-16T11:55:31;3.93;;;3.63;;
679;SDS011;322;48.846;9.230;2022-09-16T11:58:07;5.60;;;3.33;;
679;SDS011;322;48.846;9.230;2022-09-16T12:00:45;2.97;;;2.63;;
679;SDS011;322;48.846;9.230;2022-09-16T12:03:15;6.47;;;3.60;;
679;SDS011;322;48.846;9.230;2022-09-16T12:05:48;3.33;;;2.60;;
679;SDS011;322;48.846;9.230;2022-09-16T12:08:21;4.23;;;2.43;;
679;SDS011;322;48.846;9.230;2022-09-16T12:10:53;5.23;;;2.90;;
679;SDS011;322;48.846;9.230;2022-09-16T12:13:24;4.03;;;2.40;;
679;SDS011;322;48.846;9.230;2022-09-16T12:15:55;2.60;;;2.17;;
679;SDS011;322;48.846;9.230;2022-09-16T12:18:26;3.40;;;2.20;;
679;SDS011;322;48.846;9.230;2022-09-16T12:21:01;6.67;;;2.40;;
679;SDS011;322;48.846;9.230;2022-09-16T12:23:33;4.10;;;2.23;;
679;SDS011;322;48.846;9.230;2022-09-16T12:26:08;6.47;;;2.60;;
679;SDS011;322;48.846;9.230;2022-09-16T12:28:39;3.73;;;2.47;;
679;SDS011;322;48.846;9.230;2022-09-16T12:31:11;2.40;;;2.20;;
679;SDS011;322;48.846;9.230;2022-09-16T12:33:42;3.07;;;2.17;;
679;SDS011;322;48.846;9.230;2022-09-16T12:36:12;2.87;;;1.90;;
679;SDS011;322;48.846;9.230;2022-09-16T12:38:43;4.20;;;2.40;;
679;SDS011;322;48.846;9.230;2022-09-16T12:41:21;5.77;;;2.60;;
679;SDS011;322;48.846;9.230;2022-09-16T12:47:19;2.17;;;1.97;;
679;SDS011;322;48.846;9.230;2022-09-16T12:53:26;5.23;;;1.93;;
679;SDS011;322;48.846;9.230;2022-09-16T12:56:22;2.47;;;2.27;;
679;SDS011;322;48.846;9.230;2022-09-16T13:01:58;2.00;;;1.80;;
679;SDS011;322;48.846;9.230;2022-09-16T13:04:30;3.27;;;1.83;;
679;SDS011;322;48.846;9.230;2022-09-16T13:07:02;2.20;;;2.00;;
679;SDS011;322;48.846;9.230;2022-09-16T13:09:31;4.30;;;2.10;;
679;SDS011;322;48.846;9.230;2022-09-16T13:12:04;2.77;;;2.17;;
679;SDS011;322;48.846;9.230;2022-09-16T13:14:43;2.53;;;1.40;;
679;SDS011;322;48.846;9.230;2022-09-16T13:17:11;5.00;;;2.10;;
679;SDS011;322;48.846;9.230;2022-09-16T13:19:40;3.13;;;1.90;;
679;SDS011;322;48.846;9.230;2022-09-16T13:22:20;2.17;;;1.50;;
679;SDS011;322;48.846;9.230;2022-09-16T13:24:50;3.30;;;2.10;;
679;SDS011;322;48.846;9.230;2022-09-16T13:27:27;2.50;;;1.77;;
679;SDS011;322;48.846;9.230;2022-09-16T13:38:57;2.80;;;1.77;;
679;SDS011;322;48.846;9.230;2022-09-16T13:41:30;4.27;;;2.30;;
679;SDS011;322;48.846;9.230;2022-09-16T13:44:01;7.57;;;2.40;;
679;SDS011;322;48.846;9.230;2022-09-16T13:46:48;3.10;;;2.20;;
679;SDS011;322;48.846;9.230;2022-09-16T13:49:16;3.80;;;2.60;;
679;SDS011;322;48.846;9.230;2022-09-16T13:51:46;2.50;;;2.07;;
679;SDS011;322;48.846;9.230;2022-09-16T13:54:18;3.00;;;2.27;;
679;SDS011;322;48.846;9.230;2022-09-16T13:56:56;4.43;;;2.63;;
679;SDS011;322;48.846;9.230;2022-09-16T13:59:39;5.43;;;3.10;;
679;SDS011;322;48.846;9.230;2022-09-16T14:02:14;2.47;;;2.00;;
679;SDS011;322;48.846;9.230;2022-09-16T14:04:57;2.67;;;2.23;;
679;SDS011;322;48.846;9.230;2022-09-16T14:07:37;3.50;;;2.43;;
679;SDS011;322;48.846;9.230;2022-09-16T14:10:13;3.00;;;2.10;;
679;SDS011;322;48.846;9.230;2022-09-16T14:12:48;6.80;;;2.67;;
679;SDS011;322;48.846;9.230;2022-09-16T14:15:23;2.70;;;2.40;;
679;SDS011;322;48.846;9.230;2022-09-16T14:17:53;4.03;;;2.13;;
679;SDS011;322;48.846;9.230;2022-09-16T14:20:22;2.43;;;1.87;;
679;SDS011;322;48.846;9.230;2022-09-16T14:22:58;3.23;;;1.90;;
679;SDS011;322;48.846;9.230;2022-09-16T14:25:27;2.83;;;1.90;;
679;SDS011;322;48.846;9.230;2022-09-16T14:28:08;3.87;;;2.27;;
679;SDS011;322;48.846;9.230;2022-09-16T14:30:48;3.20;;;2.03;;
679;SDS011;322;48.846;9.230;2022-09-16T14:33:16;4.73;;;2.37;;
679;SDS011;322;48.846;9.230;2022-09-16T14:35:47;7.27;;;1.93;;
679;SDS011;322;48.846;9.230;2022-09-16T14:38:16;4.43;;;2.03;;
679;SDS011;322;48.846;9.230;2022-09-16T14:40:45;7.53;;;5.60;;
679;SDS011;322;48.846;9.230;2022-09-16T14:43:14;3.10;;;2.40;;
679;SDS011;322;48.846;9.230;2022-09-16T14:45:45;3.20;;;2.20;;
679;SDS011;322;48.846;9.230;2022-09-16T14:48:15;5.87;;;2.47;;
679;SDS011;322;48.846;9.230;2022-09-16T14:50:46;2.60;;;1.93;;
679;SDS011;322;48.846;9.230;2022-09-16T14:53:21;3.37;;;1.60;;
679;SDS011;322;48.846;9.230;2022-09-16T14:55:50;2.73;;;1.90;;
679;SDS011;322;48.846;9.230;2022-09-16T14:58:17;3.00;;;1.80;;
679;SDS011;322;48.846;9.230;2022-09-16T15:00:45;6.97;;;1.90;;
679;SDS011;322;48.846;9.230;2022-09-16T15:03:17;3.67;;;2.60;;
679;SDS011;322;48.846;9.230;2022-09-16T15:05:48;4.20;;;2.30;;
679;SDS011;322;48.846;9.230;2022-09-16T15:08:18;4.37;;;2.07;;
679;SDS011;322;48.846;9.230;2022-09-16T15:10:50;3.97;;;1.90;;
679;SDS011;322;48.846;9.230;2022-09-16T15:13:19;2.70;;;2.03;;
679;SDS011;322;48.846;9.230;2022-09-16T15:15:48;4.70;;;2.13;;
679;SDS011;322;48.846;9.230;2022-09-16T15:18:22;5.00;;;2.33;;
679;SDS011;322;48.846;9.230;2022-09-16T15:20:53;2.90;;;2.03;;
679;SDS011;322;48.846;9.230;2022-09-16T15:23:27;4.93;;;2.50;;
679;SDS011;322;48.846;9.230;2022-09-16T15:25:55;3.73;;;2.63;;
679;SDS011;322;48.846;9.230;2022-09-16T15:28:24;2.90;;;2.00;;
679;SDS011;322;48.846;9.230;2022-09-16T15:30:52;4.87;;;2.37;;
679;SDS011;322;48.846;9.230;2022-09-16T15:33:25;5.40;;;2.43;;
679;SDS011;322;48.846;9.230;2022-09-16T15:35:58;2.80;;;1.97;;
679;SDS011;322;48.846;9.230;2022-09-16T15:38:25;5.63;;;2.37;;
679;SDS011;322;48.846;9.230;2022-09-16T15:41:00;3.27;;;2.30;;
679;SDS011;322;48.846;9.230;2022-09-16T15:43:28;3.27;;;2.10;;
679;SDS011;322;48.846;9.230;2022-09-16T15:46:00;4.17;;;2.23;;
679;SDS011;322;48.846;9.230;2022-09-16T15:48:32;4.73;;;2.07;;
679;SDS011;322;48.846;9.230;2022-09-16T15:51:02;2.87;;;2.17;;
679;SDS011;322;48.846;9.230;2022-09-16T15:53:36;3.80;;;2.10;;
679;SDS011;322;48.846;9.230;2022-09-16T15:56:07;3.50;;;1.87;;
679;SDS011;322;48.846;9.230;2022-09-16T15:58:44;3.63;;;2.17;;
679;SDS011;322;48.846;9.230;2022-09-16T16:01:12;2.20;;;1.90;;
679;SDS011;322;48.846;9.230;2022-09-16T16:03:49;4.00;;;2.20;;
679;SDS011;322;48.846;9.230;2022-09-16T16:06:19;5.00;;;2.20;;
679;SDS011;322;48.846;9.230;2022-09-16T16:08:47;11.07;;;2.63;;
679;SDS011;322;48.846;9.230;2022-09-16T16:11:16;3.27;;;2.20;;
679;SDS011;322;48.846;9.230;2022-09-16T16:13:44;4.30;;;2.77;;
679;SDS011;322;48.846;9.230;2022-09-16T16:16:11;5.33;;;2.40;;
679;SDS011;322;48.846;9.230;2022-09-16T16:18:39;4.50;;;2.40;;
679;SDS011;322;48.846;9.230;2022-09-16T16:21:10;3.57;;;2.77;;
679;SDS011;322;48.846;9.230;2022-09-16T16:23:37;4.23;;;2.60;;
679;SDS011;322;48.846;9.230;2022-09-16T16:26:05;4.47;;;2.50;;
679;SDS011;322;48.846;9.230;2022-09-16T16:28:33;5.77;;;2.27;;
679;SDS011;322;48.846;9.230;2022-09-16T16:31:09;2.90;;;1.93;;
679;SDS011;322;48.846;9.230;2022-09-16T16:33:40;3.30;;;2.40;;
679;SDS011;322;48.846;9.230;2022-09-16T16:36:09;2.83;;;2.10;;
679;SDS011;322;48.846;9.230;2022-09-16T16:38:37;3.10;;;2.20;;
679;SDS011;322;48.846;9.230;2022-09-16T16:41:04;4.23;;;2.10;;
679;SDS011;322;48.846;9.230;2022-09-16T16:43:32;4.47;;;2.40;;
679;SDS011;322;48.846;9.230;2022-09-16T16:45:59;3.17;;;1.90;;
679;SDS011;322;48.846;9.230;2022-09-16T16:48:26;6.60;;;1.90;;